Time;durP1;ratioP1;P1;durP2;ratioP2;P2;SDS_P1;SDS_P2;PMS_P1;PMS_P2;Temp;Humidity;BMP_temperature;BMP_pressure;BME280_temperature;BME280_humidity;BME280_pressure;Samples;Min_cycle;Max_cycle;Signal;HPM_P1;HPM_P2
2021/04/26 00:01:24;;;;;;;5.13;3.38;;;;;;;6.19;54.28;101000.69;5074895;28;20071;-82
2021/04/26 00:03:54;;;;;;;7.63;3.13;;;;;;;6.14;54.35;101007.81;5062153;28;20044;-82
2021/04/26 00:06:21;;;;;;;7.05;3.30;;;;;;;6.09;54.54;101004.41;5077613;28;20070;-82
2021/04/26 00:08:48;;;;;;;5.95;3.58;;;;;;;6.03;55.13;101015.03;5083353;28;20090;-82
2021/04/26 00:11:14;;;;;;;7.45;3.28;;;;;;;5.95;54.96;100997.66;5083736;28;20048;-82
2021/04/26 00:13:40;;;;;;;6.97;3.25;;;;;;;6.00;55.13;100997.53;5085017;28;20116;-81
2021/04/26 00:16:06;;;;;;;5.35;3.90;;;;;;;5.99;54.74;100996.66;5081799;28;20064;-82
2021/04/26 00:18:32;;;;;;;8.15;3.35;;;;;;;5.97;54.72;101005.50;5066211;28;20055;-80
2021/04/26 00:20:59;;;;;;;6.50;3.28;;;;;;;5.90;55.21;100996.84;5081977;28;20140;-80
2021/04/26 00:23:26;;;;;;;6.28;3.38;;;;;;;5.90;55.90;100998.59;5085294;28;20489;-81
2021/04/26 00:25:52;;;;;;;5.72;3.75;;;;;;;5.87;55.14;100996.88;5085579;28;20048;-81
2021/04/26 00:28:18;;;;;;;6.82;3.50;;;;;;;5.86;55.68;100996.88;5082200;28;20053;-81
2021/04/26 00:30:44;;;;;;;7.60;3.22;;;;;;;5.83;55.75;101004.81;5089761;28;20079;-80
2021/04/26 00:33:10;;;;;;;6.05;3.00;;;;;;;5.77;56.29;100991.81;5074310;28;20116;-80
2021/04/26 00:35:37;;;;;;;7.68;3.35;;;;;;;5.78;56.12;100991.78;5067912;28;20052;-81
2021/04/26 00:38:03;;;;;;;5.97;3.50;;;;;;;5.72;56.27;100989.25;5084607;28;20102;-81
2021/04/26 00:40:30;;;;;;;6.97;3.63;;;;;;;5.71;56.20;100992.78;5084306;28;20072;-81
2021/04/26 00:42:57;;;;;;;5.43;3.55;;;;;;;5.63;56.28;100987.66;5079269;28;22259;-81
2021/04/26 00:45:26;;;;;;;8.88;3.22;;;;;;;5.58;56.70;100994.75;5079634;28;20123;-81
2021/04/26 00:47:56;;;;;;;9.50;3.60;;;;;;;5.48;57.22;100980.06;5082903;28;20082;-81
2021/04/26 00:50:28;;;;;;;5.97;3.85;;;;;;;5.51;57.29;100981.75;5066311;28;20051;-81
2021/04/26 00:52:55;;;;;;;7.95;3.55;;;;;;;5.52;56.82;100979.09;5082497;28;20130;-82
2021/04/26 00:55:25;;;;;;;5.72;3.70;;;;;;;5.50;57.31;100980.91;5087066;28;20071;-81
2021/04/26 00:57:52;;;;;;;7.65;3.75;;;;;;;5.46;56.64;100967.84;5084864;28;20079;-82
2021/04/26 01:00:20;;;;;;;8.38;3.28;;;;;;;5.48;56.57;100977.44;5084790;28;20062;-81
2021/04/26 01:02:46;;;;;;;10.48;3.58;;;;;;;5.42;56.92;100971.41;5086813;28;20046;-81
2021/04/26 01:05:21;;;;;;;8.00;3.30;;;;;;;5.38;56.74;100973.19;5085655;28;20045;-81
2021/04/26 01:07:48;;;;;;;8.57;3.40;;;;;;;5.38;57.33;100969.72;5087491;28;20058;-80
2021/04/26 01:10:26;;;;;;;7.80;3.40;;;;;;;5.34;57.50;100978.56;5096760;28;20072;-81
2021/04/26 01:13:09;;;;;;;7.35;3.28;;;;;;;5.35;57.12;100986.41;5093453;28;20053;-81
2021/04/26 01:16:24;;;;;;;6.40;3.70;;;;;;;5.29;57.75;100981.25;5092243;28;20052;-80
2021/04/26 01:18:53;;;;;;;8.15;3.58;;;;;;;5.26;57.47;100976.91;5073453;28;20045;-82
2021/04/26 01:21:44;;;;;;;8.85;3.80;;;;;;;5.24;57.62;100972.56;5085964;28;20056;-81
2021/04/26 01:24:31;;;;;;;7.60;3.97;;;;;;;5.23;57.32;100976.94;5102131;28;20044;-81
2021/04/26 01:26:58;;;;;;;8.32;3.70;;;;;;;5.21;57.44;100975.22;5089940;28;20056;-80
2021/04/26 01:30:03;;;;;;;7.72;3.90;;;;;;;5.15;57.91;100955.22;5095494;28;20049;-82
2021/04/26 01:32:57;;;;;;;8.73;3.65;;;;;;;5.21;58.23;100969.97;5092697;28;20052;-82
2021/04/26 01:35:25;;;;;;;6.32;3.60;;;;;;;5.18;57.50;100968.28;5094854;28;20087;-81
2021/04/26 01:37:57;;;;;;;8.73;3.67;;;;;;;5.16;57.89;100964.81;5096308;28;20078;-81
2021/04/26 01:40:25;;;;;;;8.75;3.80;;;;;;;5.12;57.43;100963.13;5090509;28;20059;-81
2021/04/26 01:43:00;;;;;;;7.97;3.88;;;;;;;5.11;58.23;100961.38;5095969;28;20100;-81
2021/04/26 01:45:28;;;;;;;6.80;3.70;;;;;;;5.04;58.39;100958.88;5094125;28;20041;-82
2021/04/26 01:47:56;;;;;;;7.63;3.70;;;;;;;4.98;58.34;100957.22;5098711;28;20063;-82
2021/04/26 01:50:25;;;;;;;8.40;3.35;;;;;;;4.99;57.95;100958.97;5084485;28;20048;-81
2021/04/26 01:52:51;;;;;;;6.13;3.75;;;;;;;4.94;58.33;100955.53;5083298;28;20043;-80
2021/04/26 01:55:20;;;;;;;5.90;3.40;;;;;;;4.94;58.30;100953.78;5098092;28;20049;-80
2021/04/26 01:57:47;;;;;;;8.88;3.70;;;;;;;4.94;58.15;100950.28;5096037;28;20068;-80
2021/04/26 02:00:26;;;;;;;7.72;3.63;;;;;;;4.89;58.86;100937.22;5081911;28;20066;-81
2021/04/26 02:02:56;;;;;;;8.82;4.18;;;;;;;4.85;58.71;100947.81;5064315;28;20101;-80
2021/04/26 02:05:25;;;;;;;7.03;4.05;;;;;;;4.81;58.71;100940.84;5075990;28;20089;-81
2021/04/26 02:07:52;;;;;;;6.78;3.47;;;;;;;4.73;58.58;100933.09;5077868;28;20094;-80
2021/04/26 02:10:21;;;;;;;6.80;3.72;;;;;;;4.72;58.68;100935.75;5053853;28;20099;-81
2021/04/26 02:12:49;;;;;;;5.70;3.60;;;;;;;4.66;58.77;100933.22;5076170;28;20100;-81
2021/04/26 02:15:17;;;;;;;6.28;3.58;;;;;;;4.59;59.11;100930.66;5095844;28;20067;-81
2021/04/26 02:17:46;;;;;;;5.13;3.80;;;;;;;4.55;59.43;100929.00;5095573;28;20048;-81
2021/04/26 02:20:15;;;;;;;6.05;3.58;;;;;;;4.52;59.20;100931.66;5090092;28;20060;-81
2021/04/26 02:22:42;;;;;;;6.18;3.78;;;;;;;4.50;59.40;100936.06;5097957;28;20044;-82
2021/04/26 02:25:10;;;;;;;10.18;3.70;;;;;;;4.45;59.13;100930.00;5077270;28;20094;-82
2021/04/26 02:27:37;;;;;;;6.10;3.63;;;;;;;4.43;60.02;100926.50;5080236;28;20049;-82
2021/04/26 02:30:05;;;;;;;10.57;3.88;;;;;;;4.41;59.47;100920.41;5078825;28;20053;-81
2021/04/26 02:32:40;;;;;;;6.25;3.50;;;;;;;4.43;60.52;100920.41;5062077;28;20407;-82
2021/04/26 02:35:10;;;;;;;6.43;3.85;;;;;;;4.38;59.57;100909.13;5083200;28;20129;-82
2021/04/26 02:38:07;;;;;;;7.82;3.80;;;;;;;4.38;59.58;100903.88;5092959;28;20067;-81
2021/04/26 02:40:44;;;;;;;5.18;3.40;;;;;;;4.33;60.38;100901.31;5076538;28;20120;-81
2021/04/26 02:43:12;;;;;;;5.40;3.40;;;;;;;4.34;60.07;100908.31;5079431;28;20578;-81
2021/04/26 02:45:47;;;;;;;5.35;3.38;;;;;;;4.31;59.95;100902.22;5088498;28;20107;-81
2021/04/26 02:48:14;;;;;;;6.03;3.75;;;;;;;4.25;59.75;100897.09;5093113;28;20102;-81
2021/04/26 02:50:42;;;;;;;4.38;3.30;;;;;;;4.23;60.22;100897.97;5082804;28;20132;-82
2021/04/26 02:53:26;;;;;;;7.03;3.67;;;;;;;4.23;60.08;100891.84;5080580;28;20067;-82
2021/04/26 02:55:59;;;;;;;8.07;3.83;;;;;;;4.21;60.39;100884.00;5096153;28;20040;-81
2021/04/26 02:58:29;;;;;;;6.28;3.67;;;;;;;4.15;60.04;100876.22;5069662;28;20041;-82
2021/04/26 03:00:55;;;;;;;7.80;3.85;;;;;;;4.10;59.80;100872.78;5097671;28;20055;-82
2021/04/26 03:03:23;;;;;;;8.80;3.67;;;;;;;4.05;60.24;100863.25;5065366;28;20087;-82
2021/04/26 03:05:51;;;;;;;5.90;3.90;;;;;;;3.98;61.18;100857.22;5060222;28;20055;-82
2021/04/26 03:08:19;;;;;;;10.02;3.95;;;;;;;4.01;60.71;100858.94;5074420;28;20493;-82
2021/04/26 03:10:47;;;;;;;8.60;3.70;;;;;;;4.01;61.19;100867.66;5060132;28;20044;-82
2021/04/26 03:13:15;;;;;;;8.00;4.13;;;;;;;4.04;60.41;100872.00;5059054;28;20045;-81
2021/04/26 03:15:42;;;;;;;6.85;4.55;;;;;;;4.03;60.58;100868.50;5078423;28;20090;-81
2021/04/26 03:18:12;;;;;;;10.13;3.70;;;;;;;3.94;60.10;100846.78;5077358;28;20048;-81
2021/04/26 03:20:39;;;;;;;7.87;3.77;;;;;;;3.95;60.60;100859.00;5076985;28;20044;-81
2021/04/26 03:23:08;;;;;;;9.85;4.22;;;;;;;3.93;60.87;100856.44;5084161;28;20057;-80
2021/04/26 03:25:37;;;;;;;9.75;4.05;;;;;;;3.90;60.31;100848.59;5093326;28;20024;-80
2021/04/26 03:28:04;;;;;;;10.57;4.05;;;;;;;3.88;60.62;100838.13;5079665;28;20068;-79
2021/04/26 03:30:31;;;;;;;10.15;4.10;;;;;;;3.84;60.91;100852.16;5090177;28;20048;-81
2021/04/26 03:32:59;;;;;;;8.40;3.75;;;;;;;3.73;60.70;100851.41;5085806;28;20045;-81
2021/04/26 03:35:26;;;;;;;8.65;3.55;;;;;;;3.76;61.08;100855.75;5107812;28;20087;-81
2021/04/26 03:37:54;;;;;;;7.93;3.70;;;;;;;3.69;61.37;100844.47;5083606;28;20071;-81
2021/04/26 03:40:23;;;;;;;5.97;3.70;;;;;;;3.71;61.79;100845.34;5071238;28;20075;-81
2021/04/26 03:42:54;;;;;;;7.60;3.45;;;;;;;3.76;60.72;100846.16;5081009;28;20041;-82
2021/04/26 03:45:22;;;;;;;8.80;3.72;;;;;;;3.74;60.78;100845.31;5080473;28;20119;-81
2021/04/26 03:47:49;;;;;;;6.90;4.05;;;;;;;3.74;61.14;100831.34;5083419;28;20146;-82
2021/04/26 03:50:18;;;;;;;6.72;3.80;;;;;;;3.74;60.93;100837.44;5068525;28;20041;-82
2021/04/26 03:52:44;;;;;;;10.07;3.83;;;;;;;3.75;60.63;100836.56;5083059;28;20052;-81
2021/04/26 03:55:18;;;;;;;12.45;4.15;;;;;;;3.75;60.49;100833.06;5090246;28;20048;-80
2021/04/26 03:57:44;;;;;;;9.18;4.25;;;;;;;3.74;60.26;100837.44;5093579;28;20095;-80
2021/04/26 04:00:12;;;;;;;6.72;3.65;;;;;;;3.75;61.20;100844.41;5087139;28;20105;-82
2021/04/26 04:02:42;;;;;;;;;;;;;;;3.76;60.85;100838.28;5080687;28;20486;-81
2021/04/26 04:05:10;;;;;;;6.57;3.42;;;;;;;3.77;60.46;100841.78;5077997;28;19924;-81
2021/04/26 04:07:38;;;;;;;8.98;3.47;;;;;;;3.75;60.08;100836.56;5077230;28;20040;-81
2021/04/26 04:10:07;;;;;;;7.28;4.00;;;;;;;3.71;60.34;100823.50;5073512;28;20059;-80
2021/04/26 04:12:36;;;;;;;7.47;4.05;;;;;;;3.66;60.35;100827.94;5067923;28;20083;-79
2021/04/26 04:15:04;;;;;;;8.57;3.72;;;;;;;3.64;60.54;100827.06;5076642;28;20049;-79
2021/04/26 04:17:30;;;;;;;6.78;3.55;;;;;;;3.62;60.71;100841.97;5082046;28;20119;-79
2021/04/26 04:19:56;;;;;;;5.03;3.28;;;;;;;3.55;60.80;100835.91;5069832;28;20163;-79
2021/04/26 04:22:23;;;;;;;7.55;4.55;;;;;;;3.50;61.12;100832.47;5086348;28;20045;-80
2021/04/26 04:24:51;;;;;;;8.02;4.22;;;;;;;3.54;61.26;100839.41;5091694;28;20052;-79
2021/04/26 04:27:17;;;;;;;6.07;3.47;;;;;;;3.53;60.65;100838.53;5084354;28;20116;-81
2021/04/26 04:29:44;;;;;;;9.45;3.40;;;;;;;3.54;60.69;100844.66;5079265;28;20560;-79
2021/04/26 04:32:10;;;;;;;5.70;3.50;;;;;;;3.52;61.19;100844.66;5090825;28;20148;-80
2021/04/26 04:34:36;;;;;;;6.65;3.45;;;;;;;3.52;60.61;100830.72;5078709;28;20106;-80
2021/04/26 04:37:03;;;;;;;5.45;3.83;;;;;;;3.56;60.20;100844.63;5077996;28;20055;-81
2021/04/26 04:39:30;;;;;;;9.93;3.65;;;;;;;3.52;60.68;100846.41;5076846;28;20049;-81
2021/04/26 04:41:57;;;;;;;6.38;3.28;;;;;;;3.53;60.63;100851.63;5076985;28;20052;-80
2021/04/26 04:44:23;;;;;;;13.48;4.30;;;;;;;3.54;60.81;100849.88;5073322;28;20789;-80
2021/04/26 04:46:50;;;;;;;9.70;3.67;;;;;;;3.51;60.38;100849.91;5078769;28;20108;-80
2021/04/26 04:49:16;;;;;;;7.10;3.50;;;;;;;3.52;60.10;100841.19;5059036;28;20491;-79
2021/04/26 04:51:45;;;;;;;6.25;3.80;;;;;;;3.59;60.69;100842.00;5085587;28;20044;-80
2021/04/26 04:54:12;;;;;;;6.68;3.70;;;;;;;3.60;59.47;100839.38;5091168;28;20144;-79
2021/04/26 04:56:39;;;;;;;6.72;3.28;;;;;;;3.62;59.36;100841.97;5085685;28;20044;-79
2021/04/26 04:59:07;;;;;;;5.85;3.38;;;;;;;3.64;59.86;100846.28;5094014;28;20052;-79
2021/04/26 05:01:33;;;;;;;5.10;3.38;;;;;;;3.71;58.99;100842.72;5091824;28;20075;-80
2021/04/26 05:04:00;;;;;;;4.68;3.05;;;;;;;3.75;58.96;100848.78;5090960;28;20114;-80
2021/04/26 05:06:27;;;;;;;8.63;3.45;;;;;;;3.75;58.69;100848.78;5083769;28;20029;-81
2021/04/26 05:08:55;;;;;;;6.93;3.45;;;;;;;3.72;59.00;100849.69;5096593;28;20056;-82
2021/04/26 05:11:21;;;;;;;9.35;3.53;;;;;;;3.77;58.79;100853.13;5099861;28;20066;-81
2021/04/26 05:13:48;;;;;;;6.60;3.25;;;;;;;3.84;58.48;100848.66;5089689;28;20056;-81
2021/04/26 05:16:16;;;;;;;6.43;3.10;;;;;;;3.87;58.53;100846.88;5087410;28;20041;-80
2021/04/26 05:18:44;;;;;;;4.65;3.28;;;;;;;3.90;58.46;100850.34;5080867;28;20048;-81
2021/04/26 05:21:10;;;;;;;8.35;3.53;;;;;;;3.90;58.01;100847.72;5090868;28;20462;-81
2021/04/26 05:23:36;;;;;;;6.20;3.15;;;;;;;3.96;58.03;100853.75;5083168;28;20048;-82
2021/04/26 05:26:03;;;;;;;5.93;3.10;;;;;;;4.02;58.48;100855.44;5084533;28;20063;-83
2021/04/26 05:28:30;;;;;;;5.65;3.50;;;;;;;4.02;57.43;100851.06;5089840;28;20071;-80
2021/04/26 05:30:56;;;;;;;9.88;3.35;;;;;;;4.07;57.51;100862.34;5092714;28;20045;-81
2021/04/26 05:33:24;;;;;;;8.63;3.50;;;;;;;4.06;56.79;100854.50;5082329;28;20048;-80
2021/04/26 05:35:52;;;;;;;7.38;3.40;;;;;;;4.06;57.32;100855.38;5085090;28;20124;-81
2021/04/26 05:38:20;;;;;;;6.38;3.10;;;;;;;4.10;56.71;100858.81;5091514;28;20040;-80
2021/04/26 05:40:48;;;;;;;5.68;3.13;;;;;;;4.17;56.72;100852.59;5085146;28;20109;-81
2021/04/26 05:43:17;;;;;;;5.38;3.15;;;;;;;4.23;57.38;100852.53;5091551;28;20051;-80
2021/04/26 05:45:44;;;;;;;6.38;3.10;;;;;;;4.34;56.18;100853.25;5106310;28;20068;-79
2021/04/26 05:48:11;;;;;;;5.88;2.95;;;;;;;4.44;56.09;100854.84;5082096;28;20056;-83
2021/04/26 05:50:42;;;;;;;4.45;2.90;;;;;;;4.49;55.51;100850.41;5087933;28;20052;-81
2021/04/26 05:53:13;;;;;;;7.22;3.20;;;;;;;4.41;55.31;100831.25;5090205;28;20056;-82
2021/04/26 05:55:41;;;;;;;5.43;3.00;;;;;;;4.65;54.80;100850.16;5086165;28;20044;-80
2021/04/26 05:58:13;;;;;;;8.43;3.00;;;;;;;4.77;54.54;100865.69;5085554;28;20060;-81
2021/04/26 06:00:41;;;;;;;3.50;2.53;;;;;;;4.89;52.98;100870.75;5094146;28;20055;-82
2021/04/26 06:03:08;;;;;;;4.53;2.50;;;;;;;4.88;52.96;100864.63;5102871;28;20100;-82
2021/04/26 06:05:34;;;;;;;6.93;2.90;;;;;;;4.98;53.08;100860.13;5091493;28;20036;-82
2021/04/26 06:08:00;;;;;;;5.43;2.55;;;;;;;5.12;52.17;100871.25;5094505;28;20416;-82
2021/04/26 06:10:27;;;;;;;4.72;2.58;;;;;;;5.24;51.52;100863.16;5076566;28;20033;-82
2021/04/26 06:12:54;;;;;;;5.68;2.70;;;;;;;5.42;51.34;100871.59;5094013;28;20068;-82
2021/04/26 06:15:25;;;;;;;7.18;2.67;;;;;;;5.57;50.59;100868.69;5088488;28;20071;-80
2021/04/26 06:17:54;;;;;;;4.07;2.78;;;;;;;5.78;49.63;100870.03;5097223;28;20037;-80
2021/04/26 06:20:20;;;;;;;6.35;2.63;;;;;;;6.62;47.99;100863.84;5090236;28;20072;-82
2021/04/26 06:22:48;;;;;;;4.15;2.45;;;;;;;8.81;43.16;100863.06;5096918;28;20059;-81
2021/04/26 06:25:14;;;;;;;6.45;2.47;;;;;;;10.65;39.35;100859.03;5084004;28;20060;-81
2021/04/26 06:27:41;;;;;;;3.67;2.42;;;;;;;12.28;35.08;100860.78;5087638;28;20048;-80
2021/04/26 06:30:08;;;;;;;6.00;2.60;;;;;;;13.01;35.25;100856.41;5094747;28;20061;-82
2021/04/26 06:32:34;;;;;;;4.72;2.50;;;;;;;13.57;31.39;100858.84;5099672;28;20056;-80
2021/04/26 06:35:00;;;;;;;7.10;2.92;;;;;;;13.84;33.33;100853.03;5092773;28;20044;-79
2021/04/26 06:37:27;;;;;;;3.25;2.13;;;;;;;14.34;30.70;100847.63;5093123;28;20112;-80
2021/04/26 06:39:54;;;;;;;3.80;2.05;;;;;;;14.89;30.03;100853.41;5074389;28;20048;-82
2021/04/26 06:42:20;;;;;;;4.30;2.30;;;;;;;15.91;27.79;100851.78;5051377;28;20120;-82
2021/04/26 06:44:46;;;;;;;5.45;1.95;;;;;;;15.69;27.97;100839.75;5088692;28;20052;-81
2021/04/26 06:47:12;;;;;;;5.40;2.10;;;;;;;15.94;28.41;100848.91;5089630;28;20058;-81
2021/04/26 06:49:39;;;;;;;4.53;2.10;;;;;;;16.35;27.23;100849.88;5066020;28;20155;-81
2021/04/26 06:52:05;;;;;;;5.40;2.35;;;;;;;16.88;26.15;100848.22;5071101;28;20044;-83
2021/04/26 06:54:32;;;;;;;2.88;1.88;;;;;;;17.22;25.56;100846.84;5084756;28;20071;-82
2021/04/26 06:56:58;;;;;;;5.20;2.30;;;;;;;16.57;26.08;100845.81;5089195;28;20115;-80
2021/04/26 06:59:25;;;;;;;6.72;2.47;;;;;;;16.26;27.05;100836.22;5067645;28;20069;-83
2021/04/26 07:01:52;;;;;;;6.07;2.25;;;;;;;16.33;26.76;100835.75;5092029;28;20116;-80
2021/04/26 07:04:20;;;;;;;5.07;2.17;;;;;;;16.79;26.34;100832.78;5084849;28;20052;-79
2021/04/26 07:06:46;;;;;;;4.03;2.08;;;;;;;17.17;26.19;100839.09;5089894;28;20039;-81
2021/04/26 07:09:13;;;;;;;3.03;1.80;;;;;;;17.68;24.92;100843.72;5091736;28;20047;-82
2021/04/26 07:11:41;;;;;;;4.13;2.00;;;;;;;17.06;25.48;100838.97;5090204;28;20079;-82
2021/04/26 07:14:07;;;;;;;3.65;1.73;;;;;;;17.01;26.27;100838.41;5062219;28;20107;-81
2021/04/26 07:16:33;;;;;;;5.05;1.80;;;;;;;17.31;25.26;100837.34;5077415;28;20522;-81
2021/04/26 07:19:00;;;;;;;5.65;2.47;;;;;;;18.00;25.00;100826.25;5064362;28;20041;-83
2021/04/26 07:21:27;;;;;;;3.85;2.05;;;;;;;18.23;24.55;100822.78;5079707;28;20080;-82
2021/04/26 07:23:53;;;;;;;3.03;1.73;;;;;;;18.96;24.12;100813.88;5078135;28;20120;-81
2021/04/26 07:26:22;;;;;;;9.65;2.03;;;;;;;19.20;22.99;100816.53;5066357;28;20048;-83
2021/04/26 07:28:48;;;;;;;3.78;1.70;;;;;;;19.44;23.33;100813.78;5075621;28;20091;-81
2021/04/26 07:31:15;;;;;;;6.50;2.10;;;;;;;19.67;23.69;100818.28;5074506;28;20052;-82
2021/04/26 07:33:42;;;;;;;5.55;1.70;;;;;;;19.48;22.57;100818.81;5081835;28;20048;-81
2021/04/26 07:36:09;;;;;;;2.22;1.80;;;;;;;18.88;22.93;100827.00;5080258;28;20044;-82
2021/04/26 07:38:35;;;;;;;3.33;2.15;;;;;;;19.21;23.15;100818.22;5077493;28;20071;-81
2021/04/26 07:41:02;;;;;;;5.30;1.88;;;;;;;19.25;22.52;100815.19;5078390;28;20052;-83
2021/04/26 07:43:28;;;;;;;4.55;1.98;;;;;;;19.24;22.35;100808.09;5082669;28;20080;-83
2021/04/26 07:45:56;;;;;;;3.45;1.90;;;;;;;18.21;23.49;100818.50;5089813;28;20033;-81
2021/04/26 07:48:25;;;;;;;2.90;1.48;;;;;;;18.52;23.49;100815.31;5090474;28;20099;-82
2021/04/26 07:50:51;;;;;;;2.85;1.80;;;;;;;18.53;23.30;100800.06;5085735;28;20068;-81
2021/04/26 07:53:18;;;;;;;4.10;1.75;;;;;;;18.64;23.47;100805.53;5089452;28;20076;-82
2021/04/26 07:55:44;;;;;;;2.58;1.42;;;;;;;18.43;21.88;100805.25;5072115;28;20083;-82
2021/04/26 07:58:10;;;;;;;4.47;1.40;;;;;;;17.96;22.53;100794.41;5091411;28;20139;-83
2021/04/26 08:00:36;;;;;;;2.58;1.63;;;;;;;18.13;22.77;100794.06;5062083;28;20065;-82
2021/04/26 08:03:04;;;;;;;2.75;1.40;;;;;;;17.94;23.43;100785.66;5089520;28;20046;-82
2021/04/26 08:05:30;;;;;;;3.50;1.52;;;;;;;18.12;22.01;100792.34;5092288;28;20049;-83
2021/04/26 08:07:58;;;;;;;4.05;1.20;;;;;;;17.71;22.09;100790.81;5074036;28;20384;-83
2021/04/26 08:10:24;;;;;;;3.05;1.40;;;;;;;17.88;21.88;100793.16;5100939;28;20135;-84
2021/04/26 08:12:52;;;;;;;3.05;1.40;;;;;;;17.87;22.01;100790.56;5093966;28;20049;-83
2021/04/26 08:15:19;;;;;;;2.88;1.30;;;;;;;18.13;21.62;100789.56;5096331;28;20024;-82
2021/04/26 08:17:45;;;;;;;2.88;1.15;;;;;;;18.15;20.92;100789.44;5093250;28;20063;-80
2021/04/26 08:20:12;;;;;;;2.28;1.08;;;;;;;17.81;21.45;100780.28;5079563;28;20053;-81
2021/04/26 08:22:39;;;;;;;2.60;1.48;;;;;;;17.01;22.23;100784.91;5094733;28;20036;-82
2021/04/26 08:25:32;;;;;;;5.57;1.60;;;;;;;16.94;22.72;100777.41;5087979;28;20045;-78
2021/04/26 08:28:01;;;;;;;3.80;1.65;;;;;;;17.62;22.81;100780.72;5071929;28;20075;-86
2021/04/26 08:30:31;;;;;;;5.40;1.80;;;;;;;17.71;22.26;100777.41;5095135;28;20052;-82
2021/04/26 08:32:58;;;;;;;4.72;1.50;;;;;;;16.75;23.00;100775.97;5086238;28;20487;-83
2021/04/26 08:35:25;;;;;;;2.70;1.50;;;;;;;15.52;24.05;100762.47;5092191;28;20051;-83
2021/04/26 08:37:55;;;;;;;2.58;1.63;;;;;;;14.48;25.72;100774.97;5096621;28;20117;-82
2021/04/26 08:40:21;;;;;;;3.92;1.60;;;;;;;13.80;27.00;100767.16;5099030;28;20047;-82
2021/04/26 08:42:49;;;;;;;2.13;1.40;;;;;;;13.40;27.99;100772.88;5099454;28;20052;-83
2021/04/26 08:45:19;;;;;;;3.75;1.17;;;;;;;13.04;27.69;100771.19;5118032;28;20044;-83
2021/04/26 08:47:46;;;;;;;5.55;1.45;;;;;;;12.64;28.13;100754.56;5099514;28;20052;-82
2021/04/26 08:50:13;;;;;;;3.42;1.42;;;;;;;12.49;28.72;100757.13;5097512;28;20112;-82
2021/04/26 08:52:40;;;;;;;3.75;1.65;;;;;;;12.23;29.41;100758.41;5087303;28;20156;-83
2021/04/26 08:55:08;;;;;;;1.98;1.30;;;;;;;11.90;29.40;100734.31;5098627;28;20048;-82
2021/04/26 08:57:34;;;;;;;2.85;1.38;;;;;;;11.97;29.77;100751.66;5097044;28;20052;-83
2021/04/26 09:00:05;;;;;;;3.30;1.30;;;;;;;11.92;30.00;100756.34;5099570;28;20067;-82
2021/04/26 09:02:50;;;;;;;2.40;1.23;;;;;;;11.99;30.43;100752.44;5098512;28;20049;-82
2021/04/26 09:05:22;;;;;;;3.17;1.50;;;;;;;11.97;29.85;100748.13;5098410;28;20079;-81
2021/04/26 09:07:57;;;;;;;3.38;1.20;;;;;;;11.76;30.46;100739.41;5099787;28;20037;-83
2021/04/26 09:10:41;;;;;;;4.38;1.55;;;;;;;11.77;30.74;100757.03;5082372;28;20057;-82
2021/04/26 09:13:27;;;;;;;2.05;1.20;;;;;;;11.85;30.14;100742.47;5070408;28;20100;-84
2021/04/26 09:16:24;;;;;;;4.32;1.60;;;;;;;11.77;29.76;100734.03;5088840;28;20136;-83
2021/04/26 09:18:57;;;;;;;1.50;0.85;;;;;;;11.84;29.60;100734.59;5089972;28;20060;-82
2021/04/26 09:21:30;;;;;;;2.67;1.08;;;;;;;11.72;28.74;100735.13;5093367;28;20051;-83
2021/04/26 09:24:25;;;;;;;2.65;1.20;;;;;;;11.62;29.16;100725.88;5088334;28;20051;-82
2021/04/26 09:27:03;;;;;;;1.75;0.90;;;;;;;11.51;29.33;100724.56;5105363;28;20029;-81
2021/04/26 09:29:32;;;;;;;2.88;1.00;;;;;;;11.49;29.12;100718.47;5112153;28;20052;-81
2021/04/26 09:32:03;;;;;;;2.38;0.90;;;;;;;11.44;28.39;100715.19;5095857;28;20116;-83
2021/04/26 09:34:44;;;;;;;3.00;1.20;;;;;;;11.53;28.86;100706.78;5096523;28;20051;-81
2021/04/26 09:37:15;;;;;;;;;;;;;;;11.75;28.19;100730.53;5097827;28;20078;-82
2021/04/26 09:40:03;;;;;;;1.00;0.88;;;;;;;11.72;27.91;100724.50;5095351;28;19928;-83
2021/04/26 09:42:55;;;;;;;2.00;0.88;;;;;;;11.80;28.06;100717.97;5097354;28;20071;-83
2021/04/26 09:45:35;;;;;;;2.80;0.93;;;;;;;11.96;28.06;100719.91;5096252;28;20056;-83
2021/04/26 09:48:20;;;;;;;0.90;0.60;;;;;;;12.11;27.66;100711.19;5097089;28;20086;-82
2021/04/26 09:51:08;;;;;;;0.98;0.88;;;;;;;12.00;26.32;100718.78;5082091;28;20044;-83
2021/04/26 09:53:45;;;;;;;1.65;0.82;;;;;;;12.01;26.91;100718.72;5089748;28;20067;-82
2021/04/26 09:56:30;;;;;;;2.35;0.70;;;;;;;11.84;26.39;100686.81;5097273;28;20036;-82
2021/04/26 09:59:03;;;;;;;2.00;0.80;;;;;;;12.08;25.38;100704.25;5094834;28;20048;-81
2021/04/26 10:01:31;;;;;;;3.53;0.70;;;;;;;11.98;25.48;100707.38;5096941;28;20197;-81
2021/04/26 10:03:59;;;;;;;4.05;0.88;;;;;;;12.02;26.26;100707.19;5093589;28;20048;-81
2021/04/26 10:06:27;;;;;;;2.28;0.70;;;;;;;12.06;26.29;100703.44;5094808;28;20053;-82
2021/04/26 10:08:57;;;;;;;1.58;0.98;;;;;;;12.08;26.53;100683.00;5094302;28;20155;-80
2021/04/26 10:11:27;;;;;;;3.15;0.88;;;;;;;12.20;27.03;100682.41;5075353;28;20055;-83
2021/04/26 10:14:04;;;;;;;1.67;0.68;;;;;;;12.51;25.39;100691.50;5095851;28;20067;-83
2021/04/26 10:16:48;;;;;;;1.05;0.63;;;;;;;12.50;24.83;100697.75;5092402;28;20045;-80
2021/04/26 10:19:16;;;;;;;1.75;0.80;;;;;;;12.51;24.56;100691.50;5076100;28;20102;-82
2021/04/26 10:21:56;;;;;;;0.95;0.45;;;;;;;12.61;24.75;100690.09;5070320;28;20057;-82
2021/04/26 10:24:27;;;;;;;2.08;0.80;;;;;;;12.68;24.87;100688.84;5078405;28;20074;-80
2021/04/26 10:27:09;;;;;;;2.15;0.70;;;;;;;12.69;24.06;100665.81;5080385;28;20053;-83
2021/04/26 10:30:06;;;;;;;1.95;0.73;;;;;;;12.75;23.99;100671.63;5084057;28;20132;-82
2021/04/26 10:32:56;;;;;;;5.07;1.17;;;;;;;12.83;25.30;100674.78;5059250;28;20083;-82
2021/04/26 10:35:43;;;;;;;1.08;0.70;;;;;;;12.89;25.74;100671.81;5081337;28;20052;-82
2021/04/26 10:38:39;;;;;;;1.45;0.88;;;;;;;13.06;24.41;100656.78;5076053;28;20127;-82
2021/04/26 10:41:10;;;;;;;2.45;0.82;;;;;;;13.12;24.54;100659.09;5073655;28;20047;-82
2021/04/26 10:43:37;;;;;;;2.60;0.90;;;;;;;12.98;24.69;100647.41;5077376;28;20049;-82
2021/04/26 10:46:20;;;;;;;0.93;0.77;;;;;;;12.85;25.39;100648.97;5071030;28;20048;-82
2021/04/26 10:49:06;;;;;;;1.25;0.70;;;;;;;12.90;26.85;100638.97;5062242;28;20040;-83
2021/04/26 10:51:35;;;;;;;3.10;0.95;;;;;;;13.08;26.38;100626.47;5070998;28;20052;-82
2021/04/26 10:54:04;;;;;;;;;;;;;;;13.29;25.00;100627.16;5086050;28;20113;-82
2021/04/26 10:56:35;;;;;;;3.17;0.70;;;;;;;13.39;24.18;100623.06;5090052;28;19932;-82
2021/04/26 10:59:17;;;;;;;1.95;0.73;;;;;;;13.39;24.42;100628.38;5088173;28;20041;-83
2021/04/26 11:01:45;;;;;;;2.05;0.70;;;;;;;13.33;24.39;100618.94;5082262;28;20268;-81
2021/04/26 11:04:16;;;;;;;1.85;0.70;;;;;;;13.41;24.51;100617.66;5069492;28;20041;-83
2021/04/26 11:07:18;;;;;;;5.57;0.75;;;;;;;13.48;24.14;100613.72;5069918;28;20048;-84
2021/04/26 11:09:46;;;;;;;2.75;0.80;;;;;;;13.41;24.09;100605.22;5068109;28;20059;-82
2021/04/26 11:12:36;;;;;;;;;;;;;;;13.34;24.20;100595.88;5089189;28;20112;-83
2021/04/26 11:15:17;;;;;;;1.75;0.80;;;;;;;13.42;25.12;100590.97;5075622;28;19920;-82
2021/04/26 11:17:44;;;;;;;1.17;0.57;;;;;;;13.49;25.48;100589.69;5086690;28;20159;-81
2021/04/26 11:20:29;;;;;;;4.70;0.90;;;;;;;13.60;25.31;100579.31;5090707;28;20037;-82
2021/04/26 11:23:00;;;;;;;1.98;0.65;;;;;;;13.70;25.88;100558.34;5076570;28;20044;-84
2021/04/26 11:25:39;;;;;;;1.20;0.80;;;;;;;13.89;25.29;100564.31;5092542;28;20044;-82
2021/04/26 11:28:09;;;;;;;2.22;0.70;;;;;;;14.08;24.83;100565.91;5093019;28;20072;-81
2021/04/26 11:30:37;;;;;;;2.97;0.70;;;;;;;13.99;24.09;100562.00;5086006;28;20035;-81
2021/04/26 11:33:09;;;;;;;1.83;0.75;;;;;;;13.87;25.11;100557.38;5096042;28;20079;-83
2021/04/26 11:36:13;;;;;;;3.78;0.73;;;;;;;13.91;24.28;100567.75;5091521;28;20076;-83
2021/04/26 11:38:40;;;;;;;1.13;0.60;;;;;;;13.78;24.34;100557.91;5092197;28;20044;-82
2021/04/26 11:41:07;;;;;;;2.45;0.70;;;;;;;13.78;24.69;100540.13;5077346;28;20102;-82
2021/04/26 11:43:43;;;;;;;0.63;0.63;;;;;;;13.96;25.29;100540.88;5049127;28;20495;-82
2021/04/26 11:46:10;;;;;;;2.78;0.70;;;;;;;14.16;26.08;100540.56;5087790;28;20075;-84